Time;durP1;ratioP1;P1;durP2;ratioP2;P2;SDS_P1;SDS_P2;PMS_P1;PMS_P2;Temp;Humidity;BMP_temperature;BMP_pressure;BME280_temperature;BME280_humidity;BME280_pressure;Samples;Min_cycle;Max_cycle;Signal;HPM_P1;HPM_P2
2021/08/03 00:01:52;;;;;;;5.60;2.08;;;;;;;16.06;62.57;100866.16;3578482;40;20052;-78
2021/08/03 00:04:28;;;;;;;4.78;1.75;;;;;;;15.97;62.62;100862.16;3559516;40;20029;-77
2021/08/03 00:07:06;;;;;;;3.80;1.75;;;;;;;15.94;63.08;100862.28;3561818;40;20041;-78
2021/08/03 00:09:34;;;;;;;6.93;2.80;;;;;;;16.00;64.27;100877.81;3555386;40;20101;-78
2021/08/03 00:12:01;;;;;;;5.10;1.90;;;;;;;15.82;64.14;100847.00;3582606;40;20110;-77
2021/08/03 00:14:30;;;;;;;6.03;2.33;;;;;;;15.82;63.77;100853.13;3567237;40;20536;-77
2021/08/03 00:16:59;;;;;;;2.80;1.40;;;;;;;15.89;63.14;100852.88;3581996;40;20053;-78
2021/08/03 00:19:30;;;;;;;5.28;1.90;;;;;;;15.93;63.47;100862.34;3565672;40;20052;-78
2021/08/03 00:21:59;;;;;;;5.55;2.38;;;;;;;16.00;63.16;100872.56;3585085;40;20048;-77
2021/08/03 00:24:27;;;;;;;5.75;2.20;;;;;;;15.80;63.67;100840.94;3575406;40;21841;-78
2021/08/03 00:26:55;;;;;;;5.63;2.30;;;;;;;15.80;63.77;100839.16;3571100;40;20034;-78
2021/08/03 00:29:22;;;;;;;4.70;2.05;;;;;;;15.79;63.36;100842.72;3587084;40;20072;-78
2021/08/03 00:31:53;;;;;;;5.77;2.23;;;;;;;15.79;63.14;100841.88;3557467;40;20056;-78
2021/08/03 00:34:26;;;;;;;7.35;2.97;;;;;;;15.96;63.51;100870.09;3560129;40;20270;-78
2021/08/03 00:36:56;;;;;;;4.43;2.05;;;;;;;15.94;63.09;100864.06;3577550;40;21544;-79
2021/08/03 00:39:25;;;;;;;5.45;2.13;;;;;;;15.81;63.26;100846.16;3559455;40;20110;-78
2021/08/03 00:42:00;;;;;;;4.45;2.20;;;;;;;15.96;62.33;100863.06;3559864;40;20065;-78
2021/08/03 00:44:48;;;;;;;;;;;;;;;15.97;61.16;100866.59;3577668;40;20918;-78
2021/08/03 00:47:25;;;;;;;5.45;2.05;;;;;;;15.92;63.35;100858.03;3571703;40;19948;-78
2021/08/03 00:49:58;;;;;;;6.75;2.58;;;;;;;15.63;63.10;100810.06;3565989;40;20635;-78
2021/08/03 00:52:28;;;;;;;4.32;1.58;;;;;;;15.83;62.64;100846.94;3556368;40;20110;-78
2021/08/03 00:54:56;;;;;;;4.68;1.95;;;;;;;15.79;62.77;100847.97;3567070;40;20061;-78
2021/08/03 00:57:25;;;;;;;7.67;3.03;;;;;;;15.79;63.14;100845.34;3582626;40;20073;-78
2021/08/03 00:59:52;;;;;;;5.55;1.90;;;;;;;15.62;62.45;100818.84;3573621;40;20057;-78
2021/08/03 01:02:25;;;;;;;6.10;2.47;;;;;;;15.57;62.62;100821.66;3559426;40;20073;-78
2021/08/03 01:04:57;;;;;;;5.28;2.13;;;;;;;15.70;62.51;100848.34;3575887;40;20077;-78
2021/08/03 01:07:57;;;;;;;6.00;2.63;;;;;;;15.71;61.64;100850.09;3568991;40;20778;-78
2021/08/03 01:10:46;;;;;;;4.78;2.00;;;;;;;15.67;61.65;100853.78;3549665;40;22130;-78
2021/08/03 01:13:26;;;;;;;4.30;1.90;;;;;;;15.63;61.91;100852.19;3575123;40;20052;-78
2021/08/03 01:16:03;;;;;;;4.43;1.90;;;;;;;15.57;62.28;100848.00;3559907;40;20044;-78
2021/08/03 01:19:18;;;;;;;6.15;2.60;;;;;;;15.56;61.65;100848.03;3558729;40;20454;-78
2021/08/03 01:21:50;;;;;;;;;;;;;;;15.53;60.95;100850.81;3530785;40;20392;-78
2021/08/03 01:24:33;;;;;;;2.78;1.10;;;;;;;15.49;61.87;100850.06;3564519;40;19936;-78
2021/08/03 01:27:35;;;;;;;3.65;1.42;;;;;;;15.45;61.88;100842.34;3562052;40;20048;-78
2021/08/03 01:30:03;;;;;;;2.47;0.90;;;;;;;15.35;62.48;100836.59;3526281;40;20136;-78
2021/08/03 01:32:33;;;;;;;;;;;;;;;15.37;60.66;100841.84;3576710;40;20041;-77
2021/08/03 01:35:04;;;;;;;3.78;1.70;;;;;;;15.29;62.35;100826.34;3580519;40;19928;-78
2021/08/03 01:37:33;;;;;;;4.38;1.73;;;;;;;15.01;62.98;100793.25;3556960;40;20889;-78
2021/08/03 01:40:12;;;;;;;4.72;1.70;;;;;;;15.20;62.32;100831.97;3566320;40;20052;-78
2021/08/03 01:42:45;;;;;;;4.13;1.65;;;;;;;15.21;62.88;100839.81;3564324;40;20077;-78
2021/08/03 01:45:17;;;;;;;4.13;1.73;;;;;;;15.18;62.73;100834.66;3565798;40;20041;-78
2021/08/03 01:47:50;;;;;;;4.97;1.58;;;;;;;15.06;61.93;100819.38;3556106;40;20052;-78
2021/08/03 01:50:22;;;;;;;5.38;2.03;;;;;;;14.97;63.25;100809.22;3544815;40;20103;-78
2021/08/03 01:52:56;;;;;;;5.45;2.13;;;;;;;14.92;63.34;100805.91;3540526;40;20704;-78
2021/08/03 01:55:27;;;;;;;6.40;2.78;;;;;;;15.00;63.82;100820.47;3553943;40;20067;-78
2021/08/03 01:58:00;;;;;;;4.88;1.98;;;;;;;15.00;64.04;100822.22;3558345;40;21038;-78
2021/08/03 02:00:35;;;;;;;6.00;2.13;;;;;;;14.79;63.93;100795.84;3561093;40;20047;-78
2021/08/03 02:03:41;;;;;;;4.78;2.10;;;;;;;14.97;64.03;100819.72;3578582;23;20033;-78
2021/08/03 02:06:15;;;;;;;6.53;2.78;;;;;;;14.92;65.24;100821.69;3561480;39;20047;-78
2021/08/03 02:08:46;;;;;;;6.65;2.75;;;;;;;14.70;65.92;100790.97;3554282;40;20052;-78
2021/08/03 02:11:17;;;;;;;5.80;2.38;;;;;;;14.73;65.22;100793.47;3553793;40;20025;-78
2021/08/03 02:13:58;;;;;;;5.57;1.73;;;;;;;14.79;64.13;100803.72;3557548;39;25075;-78
2021/08/03 02:16:37;;;;;;;5.95;2.60;;;;;;;14.78;64.95;100815.16;3567152;40;20898;-78
2021/08/03 02:19:12;;;;;;;6.03;2.42;;;;;;;14.73;64.12;100811.00;3563347;40;20036;-78
2021/08/03 02:21:57;;;;;;;5.68;2.50;;;;;;;14.67;64.76;100809.47;3577346;40;20050;-78
2021/08/03 02:24:25;;;;;;;6.70;2.22;;;;;;;14.63;64.54;100802.59;3573548;39;20072;-78
2021/08/03 02:29:49;;;;;;;6.65;2.25;;;;;;;14.41;65.59;100762.25;3571298;40;20048;-78
2021/08/03 02:32:27;;;;;;;5.10;1.70;;;;;;;14.53;64.90;100790.72;3555234;40;20044;-79
2021/08/03 02:40:45;;;;;;;6.13;2.40;;;;;;;14.50;66.52;100798.75;3574940;39;20069;-78
2021/08/03 02:43:22;;;;;;;5.25;2.03;;;;;;;14.41;66.02;100778.03;3545154;40;20422;-78
2021/08/03 02:46:00;;;;;;;5.80;2.20;;;;;;;14.46;66.18;100797.09;3569588;40;20033;-77
2021/08/03 02:48:30;;;;;;;6.28;2.38;;;;;;;14.40;66.41;100785.06;3587577;39;20036;-78
2021/08/03 02:51:00;;;;;;;6.28;2.42;;;;;;;14.41;65.99;100799.91;3577041;40;20039;-78
2021/08/03 02:56:33;;;;;;;5.40;2.10;;;;;;;14.17;66.53;100770.13;3509514;40;20758;-78
2021/08/03 02:59:05;;;;;;;5.70;2.22;;;;;;;14.20;66.32;100774.44;3500414;40;20512;-78
2021/08/03 03:01:38;;;;;;;4.35;2.00;;;;;;;14.30;66.76;100790.72;3528441;40;20420;-78
2021/08/03 03:04:35;;;;;;;7.18;2.83;;;;;;;14.27;65.33;100781.16;3529485;40;20945;-78
2021/08/03 03:12:55;;;;;;;4.82;2.15;;;;;;;14.15;66.72;100787.72;3642319;22;20045;31
2021/08/03 03:15:25;;;;;;;5.03;2.00;;;;;;;14.05;67.10;100772.34;3530806;40;20352;-78
2021/08/03 03:20:33;;;;;;;8.02;2.88;;;;;;;14.11;67.95;100780.88;3540951;40;20029;-78
2021/08/03 03:29:05;;;;;;;6.50;2.17;;;;;;;14.03;68.25;100769.75;3543729;40;20387;-78
2021/08/03 03:31:34;;;;;;;6.72;2.45;;;;;;;13.87;68.46;100743.22;3578076;23;20463;-78
2021/08/03 03:34:05;;;;;;;6.40;2.75;;;;;;;13.79;68.94;100728.63;3559038;40;20048;-78
2021/08/03 03:36:35;;;;;;;7.03;2.45;;;;;;;13.85;68.84;100741.56;3605821;23;21531;-78
2021/08/03 03:39:05;;;;;;;6.80;2.45;;;;;;;13.89;69.12;100737.88;3588580;23;20038;-78
2021/08/03 03:41:36;;;;;;;6.38;2.33;;;;;;;13.91;68.48;100746.59;3517478;40;20026;-78
2021/08/03 03:44:06;;;;;;;7.30;2.95;;;;;;;13.96;68.84;100752.53;3536789;40;20415;-78
2021/08/03 03:46:47;;;;;;;7.50;2.92;;;;;;;13.99;67.97;100763.78;3541197;40;20445;-78
2021/08/03 03:55:30;;;;;;;8.32;2.72;;;;;;;13.92;68.91;100753.53;3536517;40;20121;-75
2021/08/03 03:58:03;;;;;;;4.95;1.75;;;;;;;13.92;67.71;100748.28;3541880;40;21147;-78
2021/08/03 04:00:35;;;;;;;8.38;2.10;;;;;;;13.93;67.81;100756.09;3529154;40;20046;-78
2021/08/03 04:03:09;;;;;;;6.60;2.97;;;;;;;13.96;67.80;100757.78;3520488;40;20132;-78
2021/08/03 04:05:40;;;;;;;4.13;1.67;;;;;;;13.96;68.19;100755.16;3569332;23;20600;-78
2021/08/03 04:08:09;;;;;;;5.97;2.33;;;;;;;13.86;68.81;100738.03;3537523;40;20505;-78
2021/08/03 04:10:38;;;;;;;4.85;2.10;;;;;;;13.85;68.24;100733.69;3628968;23;20272;-78
2021/08/03 04:13:31;;;;;;;4.07;1.58;;;;;;;13.99;66.66;100749.81;3541809;40;20124;-78
2021/08/03 04:18:36;;;;;;;5.57;1.70;;;;;;;13.98;67.94;100754.19;3581457;23;20052;31
2021/08/03 04:21:10;;;;;;;4.05;1.52;;;;;;;14.03;67.07;100754.00;3601722;23;20088;-78
2021/08/03 04:24:01;;;;;;;5.15;1.98;;;;;;;14.04;66.19;100753.13;1351087;22;20189;-78
2021/08/03 04:26:36;;;;;;;3.78;1.50;;;;;;;14.06;66.75;100756.53;3617353;22;20033;-78
2021/08/03 04:29:03;;;;;;;4.43;1.58;;;;;;;13.92;67.71;100729.91;3542437;40;20312;-78
2021/08/03 04:34:21;;;;;;;3.92;1.50;;;;;;;13.84;67.34;100710.94;3601202;23;19984;-78
2021/08/03 04:42:30;;;;;;;4.65;1.80;;;;;;;14.03;67.30;100730.38;3639835;22;20033;-78
2021/08/03 04:47:53;;;;;;;3.67;1.58;;;;;;;14.13;67.17;100752.75;3549319;40;20125;-78
2021/08/03 04:50:30;;;;;;;;;;;;;;;14.19;65.04;100747.31;3572272;23;20040;-78
2021/08/03 04:56:16;;;;;;;3.20;1.45;;;;;;;13.91;66.58;100709.84;3547073;40;20060;-78
2021/08/03 05:01:37;;;;;;;4.75;1.85;;;;;;;13.96;66.29;100723.66;3544905;40;20058;-78
2021/08/03 05:07:03;;;;;;;3.63;1.30;;;;;;;14.12;66.22;100748.44;3582688;23;20094;-77
2021/08/03 05:09:30;;;;;;;4.90;1.60;;;;;;;14.10;66.97;100746.78;3570553;40;20041;-78
2021/08/03 05:14:30;;;;;;;3.00;1.48;;;;;;;14.12;66.54;100735.31;3553764;40;20069;-78
2021/08/03 05:17:00;;;;;;;1.58;0.70;;;;;;;14.25;66.37;100749.69;3604962;23;20030;-78
2021/08/03 05:19:54;;;;;;;2.70;1.40;;;;;;;14.34;65.75;100756.38;3551698;40;20163;-78
2021/08/03 05:22:21;;;;;;;6.00;1.50;;;;;;;14.27;67.36;100750.50;3585799;23;20041;-78
2021/08/03 05:24:48;;;;;;;2.47;1.00;;;;;;;14.27;66.97;100739.97;3567946;40;20082;-78
2021/08/03 05:27:17;;;;;;;3.38;1.27;;;;;;;14.25;66.59;100726.06;3550159;40;20429;-78
2021/08/03 05:29:46;;;;;;;4.53;1.55;;;;;;;14.28;67.09;100719.81;3553953;40;20068;-78
2021/08/03 05:35:32;;;;;;;5.00;1.85;;;;;;;14.63;66.18;100755.31;3600512;23;20095;-78
2021/08/03 05:38:01;;;;;;;3.55;1.33;;;;;;;14.67;67.14;100759.53;3549180;40;20041;-78
2021/08/03 05:40:30;;;;;;;4.13;1.83;;;;;;;14.66;66.75;100751.72;3546379;40;20050;-78
2021/08/03 05:42:59;;;;;;;3.92;1.67;;;;;;;14.75;67.88;100757.47;3534523;40;20469;-79
2021/08/03 05:45:27;;;;;;;5.70;2.20;;;;;;;14.70;67.96;100743.66;3532831;40;20069;-78
2021/08/03 05:47:54;;;;;;;5.25;1.63;;;;;;;14.85;67.41;100754.47;3535542;40;20043;-78
2021/08/03 05:50:23;;;;;;;5.90;2.22;;;;;;;14.79;67.56;100731.91;3546140;40;20074;-78
2021/08/03 05:52:52;;;;;;;4.25;1.58;;;;;;;14.86;67.97;100729.91;3546740;40;21610;-78
2021/08/03 05:55:20;;;;;;;8.98;2.72;;;;;;;14.87;68.77;100723.72;3541146;40;20057;-78
2021/08/03 05:57:48;;;;;;;5.78;2.13;;;;;;;14.95;69.00;100732.13;3520931;40;20072;-78
2021/08/03 06:00:23;;;;;;;;;;;;;;;15.21;65.87;100749.53;3546898;40;20125;-78
2021/08/03 06:02:51;;;;;;;3.17;1.42;;;;;;;15.15;68.23;100734.81;3538765;40;19929;-78
2021/08/03 06:05:29;;;;;;;5.13;2.05;;;;;;;15.25;68.01;100738.78;3531614;40;20045;-79
2021/08/03 06:08:00;;;;;;;6.95;2.45;;;;;;;15.33;69.23;100743.72;3543332;40;20045;-78
2021/08/03 06:10:29;;;;;;;7.03;2.60;;;;;;;15.20;69.92;100716.22;3537920;40;20038;-77
2021/08/03 06:12:57;;;;;;;5.28;2.13;;;;;;;15.43;69.65;100741.56;3551078;40;20046;-78
2021/08/03 06:15:26;;;;;;;;;;;;;;;15.58;66.30;100752.31;3551002;40;20597;-78
2021/08/03 06:18:10;;;;;;;6.72;2.25;;;;;;;15.66;68.85;100757.28;3557059;40;19937;-78
2021/08/03 06:20:41;;;;;;;5.35;2.38;;;;;;;15.68;69.52;100750.16;3530774;40;20093;-78
2021/08/03 06:23:13;;;;;;;5.32;2.38;;;;;;;15.77;69.06;100755.03;3537302;40;20061;-78
2021/08/03 06:25:43;;;;;;;7.47;2.90;;;;;;;15.80;69.94;100747.00;3554680;40;20042;-77
2021/08/03 06:28:18;;;;;;;6.65;2.95;;;;;;;15.89;69.90;100747.53;3552371;40;20053;-78
2021/08/03 06:30:51;;;;;;;8.73;3.03;;;;;;;15.92;69.57;100735.09;3549705;40;20102;-78
2021/08/03 06:33:24;;;;;;;7.28;2.75;;;;;;;15.99;68.97;100741.78;3562911;40;20447;-78
2021/08/03 06:35:52;;;;;;;7.57;2.90;;;;;;;16.06;70.24;100747.63;3550104;40;20054;-78
2021/08/03 06:38:21;;;;;;;5.85;2.45;;;;;;;16.05;69.68;100743.28;3548422;40;20118;-78
2021/08/03 06:40:55;;;;;;;7.55;2.92;;;;;;;16.19;69.44;100756.69;3551721;40;20043;-78
2021/08/03 06:43:27;;;;;;;4.20;1.95;;;;;;;16.19;69.09;100754.06;3547360;40;20508;-78
2021/08/03 06:46:08;;;;;;;6.75;2.83;;;;;;;16.25;68.55;100751.16;3542860;40;20055;-78
2021/08/03 06:48:52;;;;;;;6.65;3.00;;;;;;;16.29;69.83;100758.00;3551311;40;20057;-78
2021/08/03 06:51:41;;;;;;;6.85;2.50;;;;;;;16.33;68.02;100751.66;3546957;40;20055;-79
2021/08/03 06:54:11;;;;;;;7.82;2.85;;;;;;;16.40;69.44;100754.00;3542818;40;20050;-79
2021/08/03 06:56:51;;;;;;;5.22;1.90;;;;;;;16.42;68.20;100746.88;3535374;40;20060;-79
2021/08/03 06:59:29;;;;;;;7.95;3.15;;;;;;;16.51;68.76;100751.72;3539290;40;20070;-79
2021/08/03 07:02:33;;;;;;;7.35;3.08;;;;;;;16.56;67.80;100749.72;3535105;40;20591;-79
2021/08/03 07:05:23;;;;;;;5.80;2.10;;;;;;;16.62;67.76;100749.44;3543906;40;20090;-78
2021/08/03 07:07:58;;;;;;;5.60;1.98;;;;;;;16.67;68.71;100751.88;3538236;40;20053;-78
2021/08/03 07:10:28;;;;;;;11.57;3.70;;;;;;;16.63;69.30;100738.00;3544033;40;20043;-78
2021/08/03 07:12:55;;;;;;;7.90;3.38;;;;;;;16.71;69.55;100749.03;3554778;40;20077;-78
2021/08/03 07:15:29;;;;;;;6.50;2.30;;;;;;;16.72;68.49;100728.81;3560236;40;20533;-79
2021/08/03 07:17:57;;;;;;;7.82;3.15;;;;;;;16.64;69.70;100718.59;3542919;40;20102;-79
2021/08/03 07:20:24;;;;;;;7.63;2.92;;;;;;;16.69;69.11;100713.97;3553970;40;20155;-78
2021/08/03 07:23:01;;;;;;;6.95;3.42;;;;;;;16.98;68.17;100746.00;3547749;40;20402;-78
2021/08/03 07:25:33;;;;;;;8.95;3.20;;;;;;;17.01;68.08;100745.88;3557998;40;20851;-78
2021/08/03 07:28:02;;;;;;;5.32;2.20;;;;;;;17.07;68.43;100753.47;3548080;40;20050;-80
2021/08/03 07:30:29;;;;;;;7.38;2.78;;;;;;;17.09;69.23;100749.00;3558213;40;20054;-79
2021/08/03 07:32:58;;;;;;;8.98;2.47;;;;;;;17.17;68.61;100741.53;3550077;40;20046;-78
2021/08/03 07:35:25;;;;;;;7.82;3.20;;;;;;;16.98;68.58;100703.78;3557862;40;20054;-78
2021/08/03 07:37:53;;;;;;;8.75;3.30;;;;;;;17.19;68.52;100730.94;3542817;40;20844;-78
2021/08/03 07:40:20;;;;;;;8.43;3.22;;;;;;;17.12;68.70;100717.16;3546925;40;20069;-78
2021/08/03 07:42:46;;;;;;;8.05;2.83;;;;;;;17.18;68.79;100710.72;3549786;40;20424;-78
2021/08/03 07:45:21;;;;;;;9.63;3.73;;;;;;;17.17;67.79;100704.59;3544819;40;20711;-78
2021/08/03 07:47:50;;;;;;;9.75;3.67;;;;;;;17.35;68.04;100724.81;3552739;40;20144;-78
2021/08/03 07:50:22;;;;;;;6.93;2.95;;;;;;;17.49;68.03;100753.16;3537036;40;22389;-78
2021/08/03 07:52:54;;;;;;;9.82;3.15;;;;;;;17.48;67.53;100740.00;3541355;40;20058;-78
2021/08/03 07:55:23;;;;;;;5.50;2.17;;;;;;;17.54;67.98;100745.00;3529365;40;20046;-78
2021/08/03 07:57:50;;;;;;;8.15;3.17;;;;;;;17.42;68.36;100729.75;3548353;40;20066;-78
2021/08/03 08:00:23;;;;;;;8.65;3.85;;;;;;;17.47;68.12;100719.81;3538543;40;20041;-79
2021/08/03 08:02:50;;;;;;;8.10;2.97;;;;;;;17.53;68.34;100743.28;3538818;40;20066;-79
2021/08/03 08:05:17;;;;;;;5.35;2.38;;;;;;;17.53;67.84;100732.72;3553451;40;20066;-79
2021/08/03 08:07:46;;;;;;;6.00;2.47;;;;;;;17.58;67.99;100730.69;3541688;40;20075;-78
2021/08/03 08:10:14;;;;;;;6.15;2.33;;;;;;;17.73;68.00;100755.50;3528133;40;20664;-78
2021/08/03 08:12:46;;;;;;;6.50;2.55;;;;;;;17.74;67.38;100743.97;3534206;40;20050;-78
2021/08/03 08:15:21;;;;;;;5.25;2.10;;;;;;;17.81;67.12;100748.03;3532238;40;20050;-78
2021/08/03 08:17:50;;;;;;;5.55;2.40;;;;;;;17.87;67.54;100748.56;3529043;40;20057;-78
2021/08/03 08:20:16;;;;;;;7.07;2.83;;;;;;;17.82;67.46;100734.72;3537428;40;20085;-78
2021/08/03 08:22:46;;;;;;;9.13;3.17;;;;;;;18.09;66.98;100763.28;3549981;40;20087;-79
2021/08/03 08:25:14;;;;;;;7.40;2.60;;;;;;;17.89;66.89;100736.16;3532574;40;20065;-78
2021/08/03 08:27:42;;;;;;;7.43;3.13;;;;;;;18.04;67.13;100744.16;3549826;40;20383;-78
2021/08/03 08:30:10;;;;;;;9.80;3.13;;;;;;;18.19;66.82;100767.13;3528375;40;20034;-78
2021/08/03 08:32:37;;;;;;;7.75;3.15;;;;;;;18.13;67.03;100754.25;3545287;40;20492;-78
2021/08/03 08:35:11;;;;;;;6.15;2.80;;;;;;;18.08;66.92;100740.44;3526839;40;20088;-79
2021/08/03 08:37:39;;;;;;;9.27;3.28;;;;;;;18.32;66.60;100770.00;3542683;40;20046;-79
2021/08/03 08:40:08;;;;;;;;;;;;;;;18.49;65.30;100782.28;3548439;40;20088;-78
2021/08/03 08:42:35;;;;;;;7.45;3.17;;;;;;;18.20;65.79;100731.88;3540636;40;19949;-78
2021/08/03 08:45:08;;;;;;;7.32;3.05;;;;;;;18.52;65.96;100774.22;3543379;40;20062;-79
2021/08/03 08:47:36;;;;;;;10.60;3.42;;;;;;;18.51;66.25;100775.16;3536727;40;20130;-79
2021/08/03 08:50:07;;;;;;;8.23;3.47;;;;;;;18.33;65.54;100719.69;3535419;40;20078;-79
2021/08/03 08:52:39;;;;;;;8.18;3.45;;;;;;;18.63;65.69;100766.53;3535895;40;25228;-78
2021/08/03 08:55:31;;;;;;;6.60;2.58;;;;;;;18.75;65.19;100779.09;3526967;40;21827;-79
2021/08/03 08:57:59;;;;;;;7.55;2.55;;;;;;;18.56;65.60;100749.31;3549748;40;20565;-79
2021/08/03 09:00:29;;;;;;;5.00;2.28;;;;;;;18.79;65.72;100770.06;3535153;40;21871;-79
2021/08/03 09:03:00;;;;;;;6.60;3.00;;;;;;;18.67;65.46;100738.97;3531776;40;20065;-79
2021/08/03 09:05:34;;;;;;;7.45;2.85;;;;;;;18.89;65.04;100773.91;3549161;40;20112;-78
2021/08/03 09:08:05;;;;;;;6.07;2.53;;;;;;;18.93;65.30;100758.72;3544507;40;20105;-79
2021/08/03 09:10:32;;;;;;;8.75;2.95;;;;;;;18.99;65.05;100770.75;3549140;40;20058;-79
2021/08/03 09:13:05;;;;;;;8.27;2.08;;;;;;;19.03;64.78;100762.53;3542633;40;21005;-79
2021/08/03 09:15:57;;;;;;;8.38;2.60;;;;;;;19.17;63.66;100775.00;3539123;40;20062;-79
2021/08/03 09:18:34;;;;;;;6.85;2.65;;;;;;;19.18;63.57;100760.81;3549309;40;20375;-78
2021/08/03 09:21:29;;;;;;;5.38;2.22;;;;;;;19.26;63.60;100760.34;3541296;40;20038;-79
2021/08/03 09:24:00;;;;;;;4.50;1.42;;;;;;;19.29;63.64;100765.50;3544711;40;20058;-78
2021/08/03 09:26:47;;;;;;;4.97;1.75;;;;;;;19.26;63.37;100747.13;3538045;40;20086;-78
2021/08/03 09:29:16;;;;;;;6.85;2.40;;;;;;;19.37;63.18;100766.75;3536780;40;20058;-78
2021/08/03 09:31:55;;;;;;;6.63;2.55;;;;;;;19.42;63.01;100751.44;3542090;40;20054;-79
2021/08/03 09:34:23;;;;;;;5.47;2.10;;;;;;;19.44;62.69;100756.66;3530630;40;20062;-79
2021/08/03 09:36:57;;;;;;;6.50;2.15;;;;;;;19.43;63.07;100733.75;3556011;40;20073;-79
2021/08/03 09:39:44;;;;;;;5.38;2.28;;;;;;;19.64;62.13;100759.00;3552444;40;20050;-78
2021/08/03 09:42:23;;;;;;;5.32;2.40;;;;;;;19.67;62.67;100750.88;3551765;40;20072;-79
2021/08/03 09:45:00;;;;;;;4.80;1.95;;;;;;;19.74;61.99;100753.16;3557446;40;20041;-79
2021/08/03 09:47:34;;;;;;;7.47;2.25;;;;;;;19.79;61.41;100748.44;3557006;40;20054;-79
2021/08/03 09:50:06;;;;;;;5.57;2.10;;;;;;;19.73;61.72;100732.91;3563620;40;20073;-78
2021/08/03 09:52:40;;;;;;;4.72;1.80;;;;;;;19.89;61.95;100744.28;3550687;40;20064;-79
2021/08/03 09:55:08;;;;;;;3.28;1.48;;;;;;;19.90;62.22;100749.47;3546460;40;20128;-77
2021/08/03 09:57:37;;;;;;;5.45;2.30;;;;;;;19.77;60.56;100711.44;3558314;40;20052;-79
2021/08/03 10:00:26;;;;;;;5.55;2.20;;;;;;;20.15;61.60;100750.63;3553618;40;20102;-79
2021/08/03 10:02:54;;;;;;;3.97;1.48;;;;;;;19.99;61.29;100716.28;3560794;40;20059;-79
2021/08/03 10:05:22;;;;;;;4.60;1.92;;;;;;;20.19;61.22;100730.94;3551932;40;20054;-79
2021/08/03 10:07:49;;;;;;;4.45;1.60;;;;;;;20.22;61.52;100728.09;3561942;40;20057;-78
2021/08/03 10:10:17;;;;;;;3.55;1.45;;;;;;;20.42;61.20;100746.25;3556710;40;20073;-79
2021/08/03 10:12:44;;;;;;;7.05;2.03;;;;;;;20.32;61.20;100709.78;3545478;40;21020;-79
2021/08/03 10:15:17;;;;;;;4.00;1.73;;;;;;;20.59;61.01;100731.13;3548202;40;20454;-79
2021/08/03 10:17:44;;;;;;;4.85;1.58;;;;;;;20.62;60.72;100728.25;3551001;40;20344;-79
2021/08/03 10:20:14;;;;;;;4.80;1.92;;;;;;;20.79;60.73;100728.03;3544635;40;20053;-79
2021/08/03 10:22:54;;;;;;;5.00;2.17;;;;;;;20.96;59.67;100733.09;3558061;40;20054;-79
2021/08/03 10:25:31;;;;;;;4.07;1.48;;;;;;;21.13;60.26;100741.72;3525050;40;25453;-79
2021/08/03 10:28:25;;;;;;;5.33;2.07;;;;;;;21.27;60.07;100739.00;3546277;40;20687;-78
2021/08/03 10:30:56;;;;;;;6.65;2.63;;;;;;;21.29;58.73;100736.25;3560984;40;20062;-79
2021/08/03 10:33:37;;;;;;;4.53;1.90;;;;;;;21.45;59.08;100729.84;3561567;40;20073;-79
2021/08/03 10:36:04;;;;;;;4.45;1.65;;;;;;;21.39;59.38;100711.69;3546817;40;20058;-79
2021/08/03 10:38:33;;;;;;;4.10;1.45;;;;;;;21.59;58.95;100730.72;3560022;40;20751;-79
2021/08/03 10:41:02;;;;;;;4.68;1.70;;;;;;;21.63;59.06;100735.72;3551602;40;21226;-79
2021/08/03 10:43:48;;;;;;;6.32;2.50;;;;;;;21.79;58.89;100722.22;3560850;40;20407;-79
2021/08/03 10:46:14;;;;;;;4.50;1.75;;;;;;;21.80;58.11;100726.59;3550458;40;20062;-78
2021/08/03 10:48:43;;;;;;;3.95;1.55;;;;;;;21.87;57.24;100721.69;3548112;40;20064;-79
2021/08/03 10:54:00;;;;;;;5.72;2.03;;;;;;;22.02;57.82;100725.94;3548454;40;20057;-78
2021/08/03 10:56:57;;;;;;;3.25;1.40;;;;;;;22.05;57.64;100720.44;3544967;40;20339;-79
2021/08/03 10:59:35;;;;;;;5.03;1.75;;;;;;;22.00;56.81;100715.44;3556920;40;20053;-79
2021/08/03 11:02:04;;;;;;;4.55;1.80;;;;;;;21.96;57.00;100713.94;3545436;40;20061;-79
2021/08/03 11:04:48;;;;;;;4.80;2.03;;;;;;;21.98;57.29;100717.31;3545201;40;20042;-79
2021/08/03 11:07:26;;;;;;;4.55;1.80;;;;;;;21.93;57.20;100722.13;3541190;40;20061;-78
2021/08/03 11:10:25;;;;;;;5.32;2.10;;;;;;;21.89;56.95;100720.63;3547749;40;20058;-78
2021/08/03 11:12:53;;;;;;;4.45;1.52;;;;;;;21.74;57.25;100713.72;3558091;40;20062;-78
2021/08/03 11:15:34;;;;;;;2.78;1.35;;;;;;;21.75;57.16;100721.59;3546874;40;20058;-79
2021/08/03 11:18:10;;;;;;;3.25;1.63;;;;;;;21.63;57.61;100719.75;3562361;40;20065;-79
2021/08/03 11:20:41;;;;;;;4.95;1.67;;;;;;;21.60;57.36;100724.47;3558238;40;20057;-78
2021/08/03 11:23:15;;;;;;;4.43;1.63;;;;;;;21.42;57.92;100706.16;3550675;40;20050;-79
2021/08/03 11:25:45;;;;;;;5.50;2.20;;;;;;;21.44;58.10;100720.19;3536284;40;20478;-79
2021/08/03 11:28:23;;;;;;;4.10;1.92;;;;;;;21.37;57.88;100708.25;3559206;40;20042;-79
2021/08/03 11:30:53;;;;;;;3.50;1.50;;;;;;;21.35;58.55;100710.19;3550031;40;20377;-78
2021/08/03 11:33:24;;;;;;;4.75;1.88;;;;;;;21.36;58.19;100725.16;3558464;40;20058;-79
2021/08/03 11:35:51;;;;;;;3.97;1.50;;;;;;;21.24;58.74;100713.53;3538463;40;20058;-79
2021/08/03 11:38:22;;;;;;;4.47;1.83;;;;;;;21.24;58.30;100707.38;3539931;40;20064;-79
2021/08/03 11:41:09;;;;;;;3.75;1.70;;;;;;;21.31;58.12;100714.00;3561156;40;20543;-79
2021/08/03 11:43:37;;;;;;;3.90;1.63;;;;;;;21.18;58.30;100703.28;3544644;40;20078;-79
2021/08/03 11:46:08;;;;;;;4.97;1.75;;;;;;;21.26;58.58;100710.75;3560276;40;20669;-79
2021/08/03 11:48:41;;;;;;;4.57;1.80;;;;;;;21.24;58.70;100712.69;3548476;40;20401;-79
2021/08/03 11:51:16;;;;;;;3.38;1.60;;;;;;;21.20;58.51;100700.56;3546434;40;20114;-79
2021/08/03 11:54:15;;;;;;;3.58;1.58;;;;;;;21.32;58.76;100714.84;3543687;40;20049;-79
2021/08/03 11:56:46;;;;;;;4.03;1.50;;;;;;;21.29;57.49;100726.50;3555431;40;20054;-79
2021/08/03 11:59:14;;;;;;;4.97;2.22;;;;;;;21.26;57.38;100718.72;3545428;40;20070;-78
2021/08/03 12:01:54;;;;;;;4.68;1.98;;;;;;;21.30;57.94;100712.28;3564174;40;20065;-79
2021/08/03 12:04:23;;;;;;;3.47;1.60;;;;;;;21.09;57.81;100697.78;3544687;40;20077;-79
2021/08/03 12:06:51;;;;;;;4.45;1.90;;;;;;;21.04;56.91;100691.91;3550908;40;20073;-79
2021/08/03 12:09:42;;;;;;;5.53;2.08;;;;;;;21.24;56.73;100718.84;3545983;40;20073;-78
2021/08/03 12:12:15;;;;;;;3.90;1.75;;;;;;;21.09;56.67;100688.00;3558658;40;20073;-78
2021/08/03 12:14:47;;;;;;;5.57;2.25;;;;;;;21.06;56.24;100705.94;3558789;40;20054;-79
2021/08/03 12:17:27;;;;;;;4.78;2.08;;;;;;;20.99;56.94;100700.19;3545641;40;20183;-78
2021/08/03 12:20:02;;;;;;;4.75;2.13;;;;;;;20.88;56.71;100698.25;3541373;40;20062;-79
2021/08/03 12:22:31;;;;;;;4.15;1.88;;;;;;;20.81;56.96;100696.94;3546299;40;20420;-79
2021/08/03 12:25:03;;;;;;;4.25;2.00;;;;;;;20.61;57.50;100670.84;3556077;40;20103;-78
2021/08/03 12:27:41;;;;;;;4.72;2.22;;;;;;;20.88;57.61;100722.13;3549579;40;20061;-78
2021/08/03 12:30:31;;;;;;;5.60;2.40;;;;;;;20.87;57.53;100724.88;3547059;40;20048;-79
2021/08/03 12:32:58;;;;;;;5.40;2.40;;;;;;;20.49;58.64;100685.75;3550695;40;20070;-79
2021/08/03 12:35:27;;;;;;;4.85;2.33;;;;;;;20.62;58.28;100699.06;3560090;40;20056;-79
2021/08/03 12:38:11;;;;;;;4.10;1.80;;;;;;;20.70;57.78;100720.66;3544880;40;20414;-78
2021/08/03 12:40:41;;;;;;;5.43;2.10;;;;;;;20.52;57.94;100713.88;3548938;40;20103;-78
2021/08/03 12:43:08;;;;;;;6.38;2.15;;;;;;;20.53;58.68;100715.56;3538238;40;20046;-79
2021/08/03 12:45:42;;;;;;;5.65;1.85;;;;;;;20.38;58.86;100690.88;3543254;40;20060;-79
2021/08/03 12:48:13;;;;;;;3.35;1.45;;;;;;;20.60;58.73;100722.19;3546922;40;20091;-79
2021/08/03 12:50:50;;;;;;;4.57;1.98;;;;;;;20.49;58.21;100704.31;3555355;40;20057;-79
2021/08/03 12:53:26;;;;;;;5.38;2.50;;;;;;;20.51;58.27;100714.81;3546809;40;20071;-78
2021/08/03 12:55:57;;;;;;;6.47;2.40;;;;;;;20.51;59.31;100720.97;3547665;40;20732;-79
2021/08/03 12:58:44;;;;;;;4.45;1.73;;;;;;;20.54;58.11;100717.28;3557708;40;20065;-79
2021/08/03 13:01:18;;;;;;;3.28;1.48;;;;;;;20.56;58.34;100720.69;3552559;40;20046;-79